Time,TemperatureF,DewpointF,PressureIn,WindDirection,WindDirectionDegrees,WindSpeedMPH,WindSpeedGustMPH,Humidity,HourlyPrecipIn,Conditions,Clouds,dailyrainin,SoftwareType,DateUTC
2013-02-05 00:11:00,54.0,54.0,-100.00,NE,34,0.0,1.0,99,0.06,,,0.11,,2013-02-05 06:11:00,
2013-02-05 00:21:00,54.0,54.0,-100.00,NE,34,0.0,1.0,99,0.06,,,0.11,,2013-02-05 06:21:00,
2013-02-05 00:32:00,54.0,54.0,-100.00,NE,34,0.0,1.0,99,0.06,,,0.11,,2013-02-05 06:32:00,
2013-02-05 00:42:00,54.0,54.0,-100.00,NE,34,0.0,1.0,99,0.06,,,0.11,,2013-02-05 06:42:00,
2013-02-05 01:11:00,54.0,54.0,-100.00,ESE,109,1.0,3.0,99,0.06,,,0.17,,2013-02-05 07:11:00,
2013-02-05 01:22:00,54.0,54.0,-100.00,ESE,109,1.0,3.0,99,0.06,,,0.17,,2013-02-05 07:22:00,
2013-02-05 01:32:00,54.0,54.0,-100.00,ESE,109,1.0,3.0,99,0.06,,,0.17,,2013-02-05 07:32:00,
2013-02-05 01:41:00,54.0,54.0,-100.00,ESE,109,1.0,3.0,99,0.06,,,0.17,,2013-02-05 07:41:00,
2013-02-05 02:11:00,55.0,55.0,-100.00,North,5,2.0,4.0,99,0.17,,,-99.99,,2013-02-05 08:11:00,
2013-02-05 02:21:00,55.0,55.0,-100.00,North,5,2.0,4.0,99,0.17,,,-99.99,,2013-02-05 08:21:00,
2013-02-05 02:31:00,55.0,55.0,-100.00,North,5,2.0,4.0,99,0.17,,,-99.99,,2013-02-05 08:31:00,
2013-02-05 02:41:00,55.0,55.0,-100.00,North,5,2.0,4.0,99,0.17,,,-99.99,,2013-02-05 08:41:00,
2013-02-05 03:11:00,55.0,55.0,-100.00,NNW,329,3.0,6.0,100,0.25,,,0.59,,2013-02-05 09:11:00,
2013-02-05 03:21:00,55.0,55.0,-100.00,NNW,329,3.0,6.0,100,0.25,,,0.59,,2013-02-05 09:21:00,
2013-02-05 03:32:00,55.0,55.0,-100.00,NNW,329,3.0,6.0,100,0.25,,,0.59,,2013-02-05 09:32:00,
2013-02-05 03:42:00,55.0,55.0,-100.00,NNW,329,3.0,6.0,100,0.25,,,0.59,,2013-02-05 09:42:00,
2013-02-05 04:11:00,55.0,55.0,-100.00,NNW,340,3.0,7.0,100,0.01,,,0.60,,2013-02-05 10:11:00,
2013-02-05 04:21:00,55.0,55.0,-100.00,NNW,340,3.0,7.0,100,0.01,,,0.60,,2013-02-05 10:21:00,
2013-02-05 04:32:00,55.0,55.0,-100.00,NNW,340,3.0,7.0,100,0.01,,,0.60,,2013-02-05 10:32:00,
2013-02-05 04:42:00,55.0,55.0,-100.00,NNW,340,3.0,7.0,100,0.01,,,0.60,,2013-02-05 10:42:00,
2013-02-05 05:11:00,55.0,55.0,-100.00,North,7,2.0,7.0,100,0.01,,,0.61,,2013-02-05 11:11:00,
2013-02-05 05:22:00,55.0,55.0,-100.00,North,7,2.0,7.0,100,0.01,,,0.61,,2013-02-05 11:22:00,
2013-02-05 05:32:00,55.0,55.0,-100.00,North,7,2.0,7.0,100,0.01,,,0.61,,2013-02-05 11:32:00,
2013-02-05 05:42:00,55.0,55.0,-100.00,North,7,2.0,7.0,100,0.01,,,0.61,,2013-02-05 11:42:00,
2013-02-05 06:12:00,56.0,56.0,-100.00,NW,324,1.0,6.0,100,0.01,,,-99.99,,2013-02-05 12:12:00,
2013-02-05 06:22:00,56.0,56.0,-100.00,NW,324,1.0,6.0,100,0.01,,,-99.99,,2013-02-05 12:22:00,
2013-02-05 06:32:00,56.0,56.0,-100.00,NW,324,1.0,6.0,100,0.01,,,-99.99,,2013-02-05 12:32:00,
2013-02-05 06:42:00,56.0,56.0,-100.00,NW,324,1.0,6.0,100,0.01,,,-99.99,,2013-02-05 12:42:00,
2013-02-05 07:12:00,56.0,56.0,-100.00,NNW,329,1.0,2.0,100,0.00,,,0.62,,2013-02-05 13:12:00,
2013-02-05 07:22:00,56.0,56.0,-100.00,NNW,329,1.0,2.0,100,0.00,,,0.62,,2013-02-05 13:22:00,
2013-02-05 07:32:00,56.0,56.0,-100.00,NNW,329,1.0,2.0,100,0.00,,,0.62,,2013-02-05 13:32:00,
2013-02-05 07:42:00,56.0,56.0,-100.00,NNW,329,1.0,2.0,100,0.00,,,0.62,,2013-02-05 13:42:00,
2013-02-05 08:12:00,56.0,56.0,-100.00,NNW,330,0.0,3.0,100,0.00,,,0.62,,2013-02-05 14:12:00,
2013-02-05 08:21:00,56.0,56.0,-100.00,NNW,330,0.0,3.0,100,0.00,,,0.62,,2013-02-05 14:21:00,
2013-02-05 08:32:00,56.0,56.0,-100.00,NNW,330,0.0,3.0,100,0.00,,,0.62,,2013-02-05 14:32:00,
2013-02-05 08:42:00,56.0,56.0,-100.00,NNW,330,0.0,3.0,100,0.00,,,0.62,,2013-02-05 14:42:00,
2013-02-05 09:11:00,61.0,61.0,-100.00,North,350,2.0,6.0,99,0.00,,,0.62,,2013-02-05 15:11:00,
2013-02-05 09:21:00,61.0,61.0,-100.00,North,350,2.0,6.0,99,0.00,,,0.62,,2013-02-05 15:21:00,
2013-02-05 09:32:00,61.0,61.0,-100.00,North,350,2.0,6.0,99,0.00,,,0.62,,2013-02-05 15:32:00,
2013-02-05 09:41:00,61.0,61.0,-100.00,North,350,2.0,6.0,99,0.00,,,0.62,,2013-02-05 15:41:00,
2013-02-05 10:11:00,62.0,59.0,-100.00,North,355,4.0,9.0,91,0.00,,,0.62,,2013-02-05 16:11:00,
2013-02-05 10:22:00,62.0,59.0,-100.00,North,355,4.0,9.0,91,0.00,,,0.62,,2013-02-05 16:22:00,
2013-02-05 10:32:00,62.0,59.0,-100.00,North,355,4.0,9.0,91,0.00,,,0.62,,2013-02-05 16:32:00,
2013-02-05 10:42:00,62.0,59.0,-100.00,North,355,4.0,9.0,91,0.00,,,0.62,,2013-02-05 16:42:00,
2013-02-05 11:11:00,64.0,60.0,-100.00,North,8,4.0,9.0,86,0.00,,,-99.99,,2013-02-05 17:11:00,
2013-02-05 11:22:00,64.0,60.0,-100.00,North,8,4.0,9.0,86,0.00,,,-99.99,,2013-02-05 17:22:00,
2013-02-05 11:32:00,64.0,60.0,-100.00,North,8,4.0,9.0,86,0.00,,,-99.99,,2013-02-05 17:32:00,
2013-02-05 11:42:00,64.0,60.0,-100.00,North,8,4.0,9.0,86,0.00,,,-99.99,,2013-02-05 17:42:00,
2013-02-05 12:11:00,65.0,60.0,-100.00,North,357,2.0,6.0,84,0.00,,,0.62,,2013-02-05 18:11:00,
2013-02-05 12:22:00,65.0,60.0,-100.00,North,357,2.0,6.0,84,0.00,,,0.62,,2013-02-05 18:22:00,
2013-02-05 12:32:00,65.0,60.0,-100.00,North,357,2.0,6.0,84,0.00,,,0.62,,2013-02-05 18:32:00,
2013-02-05 12:42:00,65.0,60.0,-100.00,North,357,2.0,6.0,84,0.00,,,0.62,,2013-02-05 18:42:00,
2013-02-05 13:11:00,66.0,60.0,-100.00,NNW,344,4.0,7.0,81,0.00,,,0.62,,2013-02-05 19:11:00,
2013-02-05 13:21:00,66.0,60.0,-100.00,NNW,344,4.0,7.0,81,0.00,,,0.62,,2013-02-05 19:21:00,
2013-02-05 13:32:00,66.0,60.0,-100.00,NNW,344,4.0,7.0,81,0.00,,,0.62,,2013-02-05 19:32:00,
2013-02-05 13:42:00,66.0,60.0,-100.00,NNW,344,4.0,7.0,81,0.00,,,0.62,,2013-02-05 19:42:00,
2013-02-05 14:11:00,68.0,61.0,-100.00,WNW,300,2.0,6.0,79,0.00,,,0.62,,2013-02-05 20:11:00,
2013-02-05 14:21:00,68.0,61.0,-100.00,WNW,300,2.0,6.0,79,0.00,,,0.62,,2013-02-05 20:21:00,
2013-02-05 14:32:00,68.0,61.0,-100.00,WNW,300,2.0,6.0,79,0.00,,,0.62,,2013-02-05 20:32:00,
2013-02-05 14:42:00,68.0,61.0,-100.00,WNW,300,2.0,6.0,79,0.00,,,0.62,,2013-02-05 20:42:00,
2013-02-05 15:11:00,68.0,60.0,-100.00,NNW,348,3.0,5.0,76,0.00,,,0.62,,2013-02-05 21:11:00,
2013-02-05 15:22:00,68.0,60.0,-100.00,NNW,348,3.0,5.0,76,0.00,,,0.62,,2013-02-05 21:22:00,
2013-02-05 15:32:00,68.0,60.0,-100.00,NNW,348,3.0,5.0,76,0.00,,,0.62,,2013-02-05 21:32:00,
2013-02-05 15:42:00,68.0,60.0,-100.00,NNW,348,3.0,5.0,76,0.00,,,0.62,,2013-02-05 21:42:00,
2013-02-05 16:11:00,69.0,60.0,-100.00,NNW,337,2.0,6.0,74,0.00,,,0.62,,2013-02-05 22:11:00,
2013-02-05 16:22:00,69.0,60.0,-100.00,NNW,337,2.0,6.0,74,0.00,,,0.62,,2013-02-05 22:22:00,
2013-02-05 16:32:00,69.0,60.0,-100.00,NNW,337,2.0,6.0,74,0.00,,,0.62,,2013-02-05 22:32:00,
2013-02-05 16:42:00,69.0,60.0,-100.00,NNW,337,2.0,6.0,74,0.00,,,0.62,,2013-02-05 22:42:00,
2013-02-05 17:11:00,70.0,61.0,-100.00,ENE,71,1.0,4.0,74,0.00,,,0.62,,2013-02-05 23:11:00,
2013-02-05 17:22:00,70.0,61.0,-100.00,ENE,71,1.0,4.0,74,0.00,,,0.62,,2013-02-05 23:22:00,
2013-02-05 17:32:00,70.0,61.0,-100.00,ENE,71,1.0,4.0,74,0.00,,,0.62,,2013-02-05 23:32:00,
2013-02-05 17:42:00,70.0,61.0,-100.00,ENE,71,1.0,4.0,74,0.00,,,0.62,,2013-02-05 23:42:00,
2013-02-05 18:11:00,62.0,59.0,-100.00,SE,125,0.0,0.0,89,0.00,,,0.62,,2013-02-06 00:11:00,
2013-02-05 18:22:00,62.0,59.0,-100.00,SE,125,0.0,0.0,89,0.00,,,0.62,,2013-02-06 00:22:00,
2013-02-05 18:32:00,62.0,59.0,-100.00,SE,125,0.0,0.0,89,0.00,,,0.62,,2013-02-06 00:32:00,
2013-02-05 18:42:00,62.0,59.0,-100.00,SE,125,0.0,0.0,89,0.00,,,0.62,,2013-02-06 00:42:00,
2013-02-05 19:12:00,58.0,57.0,-100.00,ENE,75,0.0,0.0,97,0.00,,,0.61,,2013-02-06 01:12:00,
2013-02-05 19:22:00,58.0,57.0,-100.00,ENE,75,0.0,0.0,97,0.00,,,0.61,,2013-02-06 01:22:00,
2013-02-05 19:32:00,58.0,57.0,-100.00,ENE,75,0.0,0.0,97,0.00,,,0.61,,2013-02-06 01:32:00,
2013-02-05 19:42:00,58.0,57.0,-100.00,ENE,75,0.0,0.0,97,0.00,,,0.61,,2013-02-06 01:42:00,
2013-02-05 20:11:00,55.0,54.0,-100.00,NE,51,0.0,0.0,98,0.00,,,0.61,,2013-02-06 02:11:00,
2013-02-05 20:22:00,55.0,54.0,-100.00,NE,51,0.0,0.0,98,0.00,,,0.61,,2013-02-06 02:22:00,
2013-02-05 20:32:00,55.0,54.0,-100.00,NE,51,0.0,0.0,98,0.00,,,0.61,,2013-02-06 02:32:00,
2013-02-05 20:42:00,55.0,54.0,-100.00,NE,51,0.0,0.0,98,0.00,,,0.61,,2013-02-06 02:42:00,
2013-02-05 21:12:00,53.0,52.0,-100.00,SSW,199,0.0,2.0,98,0.00,,,0.61,,2013-02-06 03:12:00,
2013-02-05 21:22:00,53.0,52.0,-100.00,SSW,199,0.0,2.0,98,0.00,,,0.61,,2013-02-06 03:22:00,
2013-02-05 21:32:00,53.0,52.0,-100.00,SSW,199,0.0,2.0,98,0.00,,,0.61,,2013-02-06 03:32:00,
2013-02-05 21:42:00,53.0,52.0,-100.00,SSW,199,0.0,2.0,98,0.00,,,0.61,,2013-02-06 03:42:00,
2013-02-05 22:11:00,51.0,51.0,-100.00,ENE,62,0.0,0.0,99,0.00,,,0.59,,2013-02-06 04:11:00,
2013-02-05 22:22:00,51.0,51.0,-100.00,ENE,62,0.0,0.0,99,0.00,,,0.59,,2013-02-06 04:22:00,
2013-02-05 22:32:00,51.0,51.0,-100.00,ENE,62,0.0,0.0,99,0.00,,,0.59,,2013-02-06 04:32:00,
2013-02-05 22:42:00,51.0,51.0,-100.00,ENE,62,0.0,0.0,99,0.00,,,0.59,,2013-02-06 04:42:00,
2013-02-05 23:12:00,50.0,50.0,-100.00,NE,46,0.0,0.0,99,0.00,,,0.57,,2013-02-06 05:12:00,
2013-02-05 23:22:00,50.0,50.0,-100.00,NE,46,0.0,0.0,99,0.00,,,0.57,,2013-02-06 05:22:00,
2013-02-05 23:32:00,50.0,50.0,-100.00,NE,46,0.0,0.0,99,0.00,,,0.57,,2013-02-06 05:32:00,
2013-02-05 23:41:00,50.0,50.0,-100.00,NE,46,0.0,0.0,99,0.00,,,0.57,,2013-02-06 05:41:00,